createdAt,value
2018-02-03T00:01:59.315Z,100848.22
2018-02-03T00:04:25.422Z,100851.79
2018-02-03T00:06:51.589Z,100843.22
2018-02-03T00:09:17.818Z,100838.98
2018-02-03T00:11:44.002Z,100839.04
2018-02-03T00:14:10.248Z,100835.64
2018-02-03T00:16:36.455Z,100838.31
2018-02-03T00:19:02.727Z,100831.77
2018-02-03T00:21:28.868Z,100825.13
2018-02-03T00:23:55.081Z,100822.34
2018-02-03T00:26:21.241Z,100829.48
2018-02-03T00:28:47.453Z,100823.23
2018-02-03T00:31:13.594Z,100823.90
2018-02-03T00:33:39.935Z,100828.12
2018-02-03T00:36:06.062Z,100827.25
2018-02-03T00:38:32.318Z,100820.42
2018-02-03T00:40:58.483Z,100817.88
2018-02-03T00:43:24.630Z,100819.21
2018-02-03T00:45:50.834Z,100820.16
2018-02-03T00:48:17.039Z,100827.98
2018-02-03T00:50:43.208Z,100824.63
2018-02-03T00:53:09.371Z,100824.80
2018-02-03T00:55:35.530Z,100825.91
2018-02-03T00:58:01.647Z,100829.11
2018-02-03T01:00:27.869Z,100832.25
2018-02-03T01:02:54.021Z,100828.83
2018-02-03T01:05:20.146Z,100822.41
2018-02-03T01:07:46.300Z,100821.73
2018-02-03T01:10:12.500Z,100818.93
2018-02-03T01:12:38.669Z,100820.48
2018-02-03T01:15:05.658Z,100820.30
2018-02-03T01:17:31.827Z,100807.84
2018-02-03T01:19:58.059Z,100811.84
2018-02-03T01:22:24.232Z,100818.02
2018-02-03T01:24:50.392Z,100810.25
2018-02-03T01:27:17.127Z,100813.80
2018-02-03T01:29:43.326Z,100811.26
2018-02-03T01:32:09.477Z,100811.70
2018-02-03T01:34:35.654Z,100807.42
2018-02-03T01:37:01.793Z,100810.06
2018-02-03T01:39:28.005Z,100804.91
2018-02-03T01:41:54.159Z,100805.38
2018-02-03T01:44:20.299Z,100799.29
2018-02-03T01:46:46.524Z,100806.70
2018-02-03T01:49:12.757Z,100798.04
2018-02-03T01:51:38.975Z,100802.82
2018-02-03T01:54:05.111Z,100796.31
2018-02-03T01:56:31.290Z,100804.56
2018-02-03T01:58:57.597Z,100805.39
2018-02-03T02:01:23.730Z,100797.56
2018-02-03T02:03:49.870Z,100798.38
2018-02-03T02:06:16.024Z,100797.07
2018-02-03T02:08:42.174Z,100797.08
2018-02-03T02:11:08.434Z,100791.88
2018-02-03T02:13:34.609Z,100787.96
2018-02-03T02:16:00.829Z,100787.52
2018-02-03T02:18:26.985Z,100789.23
2018-02-03T02:20:53.173Z,100792.21
2018-02-03T02:23:19.303Z,100780.95
2018-02-03T02:25:45.488Z,100778.70
2018-02-03T02:28:11.643Z,100783.90
2018-02-03T02:30:38.030Z,100782.64
2018-02-03T02:33:04.230Z,100767.94
2018-02-03T02:35:30.420Z,100770.07
2018-02-03T02:37:56.663Z,100781.79
2018-02-03T02:40:22.895Z,100770.07
2018-02-03T02:42:49.118Z,100770.52
2018-02-03T02:45:15.373Z,100766.62
2018-02-03T02:47:41.534Z,100775.29
2018-02-03T02:50:07.716Z,100765.77
2018-02-03T02:52:33.978Z,100764.45
2018-02-03T02:55:00.103Z,100759.23
2018-02-03T02:57:26.255Z,100758.31
2018-02-03T02:59:52.458Z,100756.50
2018-02-03T03:02:18.688Z,100757.80
2018-02-03T03:04:44.828Z,100756.88
2018-02-03T03:07:10.995Z,100745.16
2018-02-03T03:09:37.180Z,100749.91
2018-02-03T03:12:03.352Z,100745.15
2018-02-03T03:14:29.520Z,100735.61
2018-02-03T03:16:55.659Z,100746.48
2018-02-03T03:19:21.828Z,100739.11
2018-02-03T03:21:48.055Z,100735.23
2018-02-03T03:24:14.239Z,100737.45
2018-02-03T03:26:40.360Z,100736.61
2018-02-03T03:29:06.504Z,100724.05
2018-02-03T03:31:32.698Z,100718.45
2018-02-03T03:33:58.893Z,100710.66
2018-02-03T03:36:25.034Z,100707.57
2018-02-03T03:38:51.242Z,100708.02
2018-02-03T03:41:17.352Z,100701.92
2018-02-03T03:43:43.735Z,100699.76
2018-02-03T03:46:09.880Z,100698.91
2018-02-03T03:48:36.052Z,100693.23
2018-02-03T03:51:02.214Z,100694.97
2018-02-03T03:53:28.368Z,100685.41
2018-02-03T03:55:54.493Z,100693.66
2018-02-03T03:58:27.629Z,100688.84
2018-02-03T04:00:53.776Z,100684.50
2018-02-03T04:03:20.009Z,100681.48
2018-02-03T04:05:46.735Z,100687.09
2018-02-03T04:08:12.883Z,100698.34
2018-02-03T04:10:39.088Z,100684.36
2018-02-03T04:13:12.135Z,100675.28
2018-02-03T04:15:38.279Z,100680.04
2018-02-03T04:18:04.448Z,100677.45
2018-02-03T04:20:30.665Z,100673.18
2018-02-03T04:22:56.930Z,100665.48
2018-02-03T04:25:23.055Z,100655.20
2018-02-03T04:27:49.181Z,100660.45
2018-02-03T04:30:15.417Z,100664.84
2018-02-03T04:32:41.554Z,100660.61
2018-02-03T04:35:07.691Z,100655.89
2018-02-03T04:37:33.861Z,100649.89
2018-02-03T04:40:00.075Z,100644.69
2018-02-03T04:42:26.343Z,100636.88
2018-02-03T04:44:52.576Z,100638.59
2018-02-03T04:47:18.706Z,100633.77
2018-02-03T04:49:44.904Z,100630.27
2018-02-03T04:52:11.036Z,100631.13
2018-02-03T04:54:44.131Z,100625.46
2018-02-03T04:57:10.282Z,100635.89
2018-02-03T04:59:36.440Z,100635.02
2018-02-03T05:02:02.568Z,100634.58
2018-02-03T05:04:29.558Z,100626.36
2018-02-03T05:06:55.666Z,100623.30
2018-02-03T05:09:21.811Z,100618.53
2018-02-03T05:11:48.053Z,100617.19
2018-02-03T05:14:14.232Z,100622.36
2018-02-03T05:16:40.406Z,100624.95
2018-02-03T05:19:07.646Z,100614.12
2018-02-03T05:21:33.792Z,100619.72
2018-02-03T05:23:59.979Z,100622.77
2018-02-03T05:26:26.204Z,100613.66
2018-02-03T05:28:52.343Z,100613.20
2018-02-03T05:31:18.557Z,100611.93
2018-02-03T05:33:44.700Z,100611.09
2018-02-03T05:36:10.833Z,100611.93
2018-02-03T05:38:37.795Z,100608.02
2018-02-03T05:41:04.080Z,100614.12
2018-02-03T05:43:33.230Z,100608.45
2018-02-03T05:45:59.493Z,100599.36
2018-02-03T05:48:25.806Z,100607.16
2018-02-03T05:50:53.010Z,100599.81
2018-02-03T05:53:19.302Z,100597.20
2018-02-03T05:55:45.493Z,100598.04
2018-02-03T05:58:11.621Z,100598.43
2018-02-03T06:00:37.792Z,100597.55
2018-02-03T06:03:03.969Z,100594.11
2018-02-03T06:05:30.141Z,100592.36
2018-02-03T06:07:56.697Z,100587.59
2018-02-03T06:10:22.873Z,100591.92
2018-02-03T06:12:49.000Z,100588.03
2018-02-03T06:15:15.192Z,100585.87
2018-02-03T06:17:41.335Z,100583.74
2018-02-03T06:20:07.614Z,100581.16
2018-02-03T06:22:33.798Z,100584.64
2018-02-03T06:24:59.970Z,100575.53
2018-02-03T06:27:26.138Z,100571.63
2018-02-03T06:29:52.327Z,100574.25
2018-02-03T06:32:18.462Z,100569.94
2018-02-03T06:34:44.596Z,100572.07
2018-02-03T06:37:10.765Z,100569.91
2018-02-03T06:39:36.942Z,100569.92
2018-02-03T06:42:04.118Z,100568.53
2018-02-03T06:44:30.284Z,100575.09
2018-02-03T06:46:56.469Z,100574.17
2018-02-03T06:49:22.681Z,100567.28
2018-02-03T06:51:48.932Z,100572.42
2018-02-03T06:54:15.175Z,100566.80
2018-02-03T06:56:41.326Z,100567.22
2018-02-03T06:59:07.459Z,100570.69
2018-02-03T07:01:33.800Z,100566.78
2018-02-03T07:03:59.965Z,100567.64
2018-02-03T07:06:26.076Z,100558.08
2018-02-03T07:08:52.271Z,100562.86
2018-02-03T07:11:18.468Z,100560.62
2018-02-03T07:13:44.625Z,100562.37
2018-02-03T07:16:10.802Z,100560.64
2018-02-03T07:18:37.008Z,100560.25
2018-02-03T07:21:03.225Z,100560.66
2018-02-03T07:23:29.438Z,100559.79
2018-02-03T07:25:55.623Z,100558.89
2018-02-03T07:28:21.791Z,100561.97
2018-02-03T07:30:55.279Z,100563.25
2018-02-03T07:33:21.416Z,100563.27
2018-02-03T07:35:47.650Z,100557.66
2018-02-03T07:38:13.788Z,100556.78
2018-02-03T07:40:39.970Z,100558.53
2018-02-03T07:43:06.196Z,100555.13
2018-02-03T07:45:32.341Z,100558.11
2018-02-03T07:47:58.454Z,100555.50
2018-02-03T07:50:24.651Z,100552.92
2018-02-03T07:52:50.838Z,100555.97
2018-02-03T07:55:16.964Z,100556.91
2018-02-03T07:57:43.217Z,100558.21
2018-02-03T08:00:09.496Z,100559.94
2018-02-03T08:02:35.697Z,100553.50
2018-02-03T08:05:01.913Z,100546.59
2018-02-03T08:07:28.130Z,100540.53
2018-02-03T08:09:54.371Z,100538.78
2018-02-03T08:12:20.548Z,100545.75
2018-02-03T08:14:46.750Z,100540.14
2018-02-03T08:17:13.297Z,100537.16
2018-02-03T08:19:39.552Z,100537.22
2018-02-03T08:22:05.756Z,100531.59
2018-02-03T08:24:31.963Z,100536.44
2018-02-03T08:26:58.139Z,100533.46
2018-02-03T08:29:24.287Z,100536.52
2018-02-03T08:31:50.508Z,100540.05
2018-02-03T08:34:16.666Z,100538.77
2018-02-03T08:36:42.813Z,100534.49
2018-02-03T08:39:09.027Z,100533.21
2018-02-03T08:41:35.234Z,100528.45
2018-02-03T08:44:01.514Z,100524.60
2018-02-03T08:46:27.702Z,100527.64
2018-02-03T08:48:53.920Z,100526.80
2018-02-03T08:51:20.104Z,100521.24
2018-02-03T08:53:46.340Z,100522.98
2018-02-03T08:56:12.460Z,100516.52
2018-02-03T08:58:38.870Z,100518.70
2018-02-03T09:01:05.014Z,100523.09
2018-02-03T09:03:31.132Z,100517.54
2018-02-03T09:05:58.224Z,100518.84
2018-02-03T09:08:24.840Z,100514.52
2018-02-03T09:10:51.033Z,100515.83
2018-02-03T09:13:27.155Z,100515.83
2018-02-03T09:15:53.296Z,100511.56
2018-02-03T09:18:19.760Z,100508.56
2018-02-03T09:20:45.919Z,100505.13
2018-02-03T09:23:13.128Z,100502.55
2018-02-03T09:25:39.290Z,100505.16
2018-02-03T09:28:05.413Z,100503.88
2018-02-03T09:30:31.588Z,100493.95
2018-02-03T09:32:58.495Z,100496.66
2018-02-03T09:35:25.081Z,100492.80
2018-02-03T09:37:51.178Z,100490.67
2018-02-03T09:40:17.347Z,100495.46
2018-02-03T09:42:43.471Z,100492.87
2018-02-03T09:45:09.595Z,100490.31
2018-02-03T09:47:35.759Z,100494.28
2018-02-03T09:50:01.945Z,100486.47
2018-02-03T09:52:28.077Z,100489.99
2018-02-03T09:54:55.230Z,100486.50
2018-02-03T09:57:22.350Z,100484.34
2018-02-03T09:59:48.554Z,100482.69
2018-02-03T10:02:14.755Z,100479.27
2018-02-03T10:04:40.928Z,100474.13
2018-02-03T10:07:07.094Z,100482.42
2018-02-03T10:09:33.266Z,100481.97
2018-02-03T10:11:59.473Z,100477.21
2018-02-03T10:14:25.663Z,100475.95
2018-02-03T10:16:51.935Z,100480.31
2018-02-03T10:19:18.159Z,100477.31
2018-02-03T10:21:44.419Z,100487.30
2018-02-03T10:24:10.713Z,100485.14
2018-02-03T10:26:36.934Z,100482.09
2018-02-03T10:29:03.085Z,100478.63
2018-02-03T10:31:29.369Z,100480.35
2018-02-03T10:33:55.578Z,100482.13
2018-02-03T10:36:22.658Z,100476.49
2018-02-03T10:38:48.888Z,100478.65
2018-02-03T10:41:15.328Z,100477.80
2018-02-03T10:43:41.480Z,100479.12
2018-02-03T10:46:07.660Z,100481.76
2018-02-03T10:48:33.857Z,100476.57
2018-02-03T10:51:00.127Z,100472.21
2018-02-03T10:53:26.323Z,100464.87
2018-02-03T10:55:52.530Z,100461.00
2018-02-03T10:58:19.331Z,100463.63
2018-02-03T11:00:45.618Z,100468.41
2018-02-03T11:03:11.779Z,100458.88
2018-02-03T11:05:37.944Z,100458.00
2018-02-03T11:08:04.180Z,100457.59
2018-02-03T11:10:30.592Z,100453.23
2018-02-03T11:12:56.737Z,100452.39
2018-02-03T11:15:22.912Z,100450.23
2018-02-03T11:17:49.121Z,100452.84
2018-02-03T11:20:15.314Z,100443.30
2018-02-03T11:22:41.532Z,100448.53
2018-02-03T11:25:07.729Z,100440.31
2018-02-03T11:27:33.925Z,100442.09
2018-02-03T11:30:00.096Z,100444.73
2018-02-03T11:32:26.360Z,100439.53
2018-02-03T11:34:52.578Z,100432.62
2018-02-03T11:37:18.780Z,100433.52
2018-02-03T11:39:45.036Z,100426.10
2018-02-03T11:42:11.296Z,100430.03
2018-02-03T11:44:37.475Z,100429.64
2018-02-03T11:47:03.750Z,100431.46
2018-02-03T11:49:29.920Z,100435.45
2018-02-03T11:51:56.859Z,100434.22
2018-02-03T11:54:23.060Z,100427.25
2018-02-03T11:56:49.241Z,100429.87
2018-02-03T11:59:16.142Z,100430.33
2018-02-03T12:01:43.066Z,100431.61
2018-02-03T12:04:09.343Z,100431.09
2018-02-03T12:06:35.432Z,100432.41
2018-02-03T12:09:01.551Z,100426.77
2018-02-03T12:11:27.701Z,100423.64
2018-02-03T12:13:53.801Z,100425.38
2018-02-03T12:16:20.089Z,100425.75
2018-02-03T12:18:46.214Z,100422.33
2018-02-03T12:21:12.372Z,100426.70
2018-02-03T12:23:38.522Z,100423.27
2018-02-03T12:26:04.669Z,100422.39
2018-02-03T12:28:31.036Z,100418.93
2018-02-03T12:30:57.268Z,100416.36
2018-02-03T12:33:23.543Z,100419.42
2018-02-03T12:35:49.732Z,100425.09
2018-02-03T12:38:15.921Z,100418.55
2018-02-03T12:40:42.145Z,100418.12
2018-02-03T12:43:08.449Z,100417.72
2018-02-03T12:45:34.628Z,100422.97
2018-02-03T12:48:00.856Z,100410.82
2018-02-03T12:50:27.057Z,100414.30
2018-02-03T12:52:54.199Z,100411.73
2018-02-03T12:55:20.362Z,100409.98
2018-02-03T12:57:46.597Z,100408.28
2018-02-03T13:00:12.824Z,100409.63
2018-02-03T13:02:39.087Z,100414.86
2018-02-03T13:05:06.168Z,100412.25
2018-02-03T13:07:32.350Z,100406.56
2018-02-03T13:09:58.521Z,100407.41
2018-02-03T13:12:24.757Z,100405.20
2018-02-03T13:14:50.971Z,100404.34
2018-02-03T13:17:17.144Z,100399.11
2018-02-03T13:19:43.351Z,100400.38
2018-02-03T13:22:09.635Z,100394.69
2018-02-03T13:24:35.887Z,100397.70
2018-02-03T13:27:02.085Z,100388.55
2018-02-03T13:29:28.298Z,100395.06
2018-02-03T13:31:54.502Z,100395.91
2018-02-03T13:34:20.680Z,100387.63
2018-02-03T13:36:46.904Z,100388.92
2018-02-03T13:39:13.063Z,100388.48
2018-02-03T13:41:39.258Z,100379.39
2018-02-03T13:44:05.511Z,100377.20
2018-02-03T13:46:31.710Z,100373.33
2018-02-03T13:48:57.869Z,100375.50
2018-02-03T13:51:31.003Z,100373.79
2018-02-03T13:53:57.245Z,100374.23
2018-02-03T13:56:23.428Z,100374.23
2018-02-03T13:58:49.606Z,100367.27
2018-02-03T14:01:15.898Z,100369.47
2018-02-03T14:03:42.058Z,100369.48
2018-02-03T14:06:08.227Z,100371.64
2018-02-03T14:08:34.418Z,100371.64
2018-02-03T14:11:00.588Z,100369.47
2018-02-03T14:13:26.772Z,100376.45
2018-02-03T14:15:52.950Z,100376.00
2018-02-03T14:18:19.147Z,100376.00
2018-02-03T14:20:45.313Z,100374.69
2018-02-03T14:23:11.562Z,100378.17
2018-02-03T14:25:37.801Z,100379.06
2018-02-03T14:28:04.022Z,100383.40
2018-02-03T14:30:30.239Z,100380.38
2018-02-03T14:32:56.456Z,100383.45
2018-02-03T14:35:22.670Z,100385.20
2018-02-03T14:37:48.829Z,100386.06
2018-02-03T14:40:15.067Z,100383.45
2018-02-03T14:42:41.279Z,100382.59
2018-02-03T14:45:07.444Z,100377.77
2018-02-03T14:47:33.724Z,100379.52
2018-02-03T14:49:59.899Z,100380.78
2018-02-03T14:52:26.109Z,100371.23
2018-02-03T14:54:52.327Z,100380.32
2018-02-03T14:57:18.549Z,100379.86
2018-02-03T14:59:44.710Z,100381.11
2018-02-03T15:02:10.919Z,100386.33
2018-02-03T15:04:37.159Z,100378.08
2018-02-03T15:07:03.381Z,100382.41
2018-02-03T15:09:30.574Z,100387.22
2018-02-03T15:11:56.791Z,100381.09
2018-02-03T15:14:23.069Z,100391.98
2018-02-03T15:16:49.336Z,100385.02
2018-02-03T15:19:15.462Z,100384.16
2018-02-03T15:21:41.848Z,100380.69
2018-02-03T15:24:08.148Z,100392.40
2018-02-03T15:26:34.386Z,100381.46
2018-02-03T15:29:00.577Z,100385.72
2018-02-03T15:31:26.774Z,100392.17
2018-02-03T15:33:52.995Z,100387.77
2018-02-03T15:36:19.123Z,100383.77
2018-02-03T15:38:45.259Z,100387.66
2018-02-03T15:41:11.460Z,100395.41
2018-02-03T15:43:37.713Z,100393.59
2018-02-03T15:46:03.875Z,100401.38
2018-02-03T15:48:30.088Z,100397.37
2018-02-03T15:50:56.295Z,100394.72
2018-02-03T15:53:22.521Z,100392.03
2018-02-03T15:55:48.730Z,100395.44
2018-02-03T15:58:14.869Z,100397.11
2018-02-03T16:00:41.093Z,100398.84
2018-02-03T16:03:07.305Z,100403.13
2018-02-03T16:05:33.466Z,100405.31
2018-02-03T16:07:59.664Z,100404.40
2018-02-03T16:10:25.820Z,100410.91
2018-02-03T16:12:52.044Z,100406.11
2018-02-03T16:15:18.262Z,100405.20
2018-02-03T16:17:44.455Z,100410.41
2018-02-03T16:20:10.644Z,100413.84
2018-02-03T16:22:36.907Z,100414.26
2018-02-03T16:25:03.143Z,100415.95
2018-02-03T16:27:29.361Z,100413.77
2018-02-03T16:29:55.512Z,100416.30
2018-02-03T16:32:21.664Z,100421.95
2018-02-03T16:34:47.810Z,100415.86
2018-02-03T16:37:13.904Z,100419.72
2018-02-03T16:39:40.008Z,100417.10
2018-02-03T16:42:06.170Z,100419.69
2018-02-03T16:44:32.286Z,100427.48
2018-02-03T16:46:58.367Z,100422.27
2018-02-03T16:49:24.608Z,100433.98
2018-02-03T16:51:50.719Z,100437.86
2018-02-03T16:54:16.886Z,100435.27
2018-02-03T16:56:43.003Z,100434.80
2018-02-03T16:59:09.126Z,100437.86
2018-02-03T17:01:35.263Z,100437.39
2018-02-03T17:04:01.495Z,100440.45
2018-02-03T17:06:27.988Z,100447.36
2018-02-03T17:08:54.217Z,100447.80
2018-02-03T17:11:20.484Z,100449.95
2018-02-03T17:13:46.697Z,100451.69
2018-02-03T17:16:12.979Z,100451.69
2018-02-03T17:18:39.181Z,100457.77
2018-02-03T17:21:05.331Z,100453.00
2018-02-03T17:23:31.579Z,100459.08
2018-02-03T17:25:57.879Z,100456.91
2018-02-03T17:28:24.037Z,100462.56
2018-02-03T17:30:50.213Z,100461.25
2018-02-03T17:33:16.461Z,100474.30
2018-02-03T17:35:42.666Z,100481.65
2018-02-03T17:38:14.890Z,100486.41
2018-02-03T17:40:41.076Z,100482.53
2018-02-03T17:43:07.298Z,100485.13
2018-02-03T17:45:39.499Z,100486.88
2018-02-03T17:48:05.880Z,100492.95
2018-02-03T17:50:32.094Z,100496.84
2018-02-03T17:52:59.310Z,100500.34
2018-02-03T17:55:31.783Z,100499.45
2018-02-03T17:57:57.911Z,100493.81
2018-02-03T18:00:24.120Z,100502.03
2018-02-03T18:02:50.307Z,100508.55
2018-02-03T18:05:16.455Z,100511.17
2018-02-03T18:07:42.682Z,100512.45
2018-02-03T18:10:08.940Z,100512.45
2018-02-03T18:12:35.179Z,100518.47
2018-02-03T18:15:01.317Z,100523.25
2018-02-03T18:17:27.954Z,100530.16
2018-02-03T18:19:54.328Z,100528.39
2018-02-03T18:22:20.593Z,100524.47
2018-02-03T18:24:47.081Z,100529.66
2018-02-03T18:27:13.313Z,100535.19
2018-02-03T18:29:39.606Z,100533.02
2018-02-03T18:32:05.866Z,100539.95
2018-02-03T18:34:32.155Z,100539.48
2018-02-03T18:36:58.322Z,100541.15
2018-02-03T18:39:24.671Z,100549.84
2018-02-03T18:41:50.910Z,100544.17
2018-02-03T18:44:17.182Z,100546.34
2018-02-03T18:46:43.423Z,100545.03
2018-02-03T18:49:09.707Z,100542.41
2018-02-03T18:51:35.956Z,100545.47
2018-02-03T18:54:02.179Z,100547.66
2018-02-03T18:56:28.364Z,100550.68
2018-02-03T18:58:54.568Z,100547.15
2018-02-03T19:01:20.924Z,100549.33
2018-02-03T19:03:47.191Z,100545.81
2018-02-03T19:06:13.504Z,100552.75
2018-02-03T19:08:39.725Z,100554.03
2018-02-03T19:11:05.983Z,100548.38
2018-02-03T19:13:32.229Z,100556.58
2018-02-03T19:15:58.790Z,100554.38
2018-02-03T19:18:25.050Z,100558.75
2018-02-03T19:20:51.269Z,100552.23
2018-02-03T19:23:18.663Z,100556.15
2018-02-03T19:25:44.805Z,100558.30
2018-02-03T19:28:10.951Z,100559.63
2018-02-03T19:30:38.227Z,100566.56
2018-02-03T19:33:04.422Z,100568.73
2018-02-03T19:35:30.671Z,100577.84
2018-02-03T19:37:56.998Z,100574.36
2018-02-03T19:40:23.247Z,100574.75
2018-02-03T19:42:49.483Z,100576.47
2018-02-03T19:45:16.421Z,100577.32
2018-02-03T19:47:42.634Z,100585.12
2018-02-03T19:50:08.821Z,100591.16
2018-02-03T19:52:35.075Z,100596.34
2018-02-03T19:55:01.293Z,100595.85
2018-02-03T19:57:27.546Z,100600.15
2018-02-03T19:59:53.888Z,100603.58
2018-02-03T20:02:20.142Z,100612.22
2018-02-03T20:04:46.297Z,100609.58
2018-02-03T20:07:12.541Z,100616.03
2018-02-03T20:09:38.790Z,100616.41
2018-02-03T20:12:05.091Z,100613.75
2018-02-03T20:14:31.336Z,100617.14
2018-02-03T20:16:57.461Z,100616.65
2018-02-03T20:19:23.747Z,100622.23
2018-02-03T20:21:49.957Z,100624.34
2018-02-03T20:24:16.244Z,100627.30
2018-02-03T20:26:42.436Z,100625.97
2018-02-03T20:29:08.639Z,100627.63
2018-02-03T20:31:34.938Z,100630.58
2018-02-03T20:34:01.063Z,100632.66
2018-02-03T20:36:27.984Z,100633.86
2018-02-03T20:38:54.154Z,100640.70
2018-02-03T20:41:20.418Z,100642.79
2018-02-03T20:43:46.624Z,100642.26
2018-02-03T20:46:12.750Z,100637.89
2018-02-03T20:48:38.891Z,100646.05
2018-02-03T20:51:05.078Z,100653.31
2018-02-03T20:53:31.317Z,100648.05
2018-02-03T20:55:57.611Z,100660.08
2018-02-03T20:58:23.803Z,100665.64
2018-02-03T21:00:50.016Z,100668.58
2018-02-03T21:03:16.207Z,100674.58
2018-02-03T21:05:42.312Z,100670.66
2018-02-03T21:08:08.454Z,100681.03
2018-02-03T21:10:34.572Z,100682.78
2018-02-03T21:13:00.814Z,100691.44
2018-02-03T21:15:26.945Z,100695.75
2018-02-03T21:17:53.099Z,100700.45
2018-02-03T21:20:19.987Z,100699.09
2018-02-03T21:22:46.207Z,100704.16
2018-02-03T21:25:12.324Z,100713.62
2018-02-03T21:27:38.529Z,100712.20
2018-02-03T21:30:04.764Z,100721.17
2018-02-03T21:32:30.991Z,100720.20
2018-02-03T21:34:57.208Z,100723.14
2018-02-03T21:37:23.309Z,100729.52
2018-02-03T21:39:49.538Z,100735.94
2018-02-03T21:42:16.759Z,100742.27
2018-02-03T21:44:43.014Z,100742.52
2018-02-03T21:47:09.151Z,100750.19
2018-02-03T21:49:35.303Z,100747.84
2018-02-03T21:52:02.120Z,100751.21
2018-02-03T21:54:28.304Z,100760.16
2018-02-03T21:56:54.463Z,100763.43
2018-02-03T21:59:20.598Z,100776.67
2018-02-03T22:01:46.842Z,100780.88
2018-02-03T22:04:13.105Z,100783.34
2018-02-03T22:06:39.229Z,100782.32
2018-02-03T22:09:05.369Z,100797.36
2018-02-03T22:11:31.528Z,100797.14
2018-02-03T22:13:57.828Z,100795.30
2018-02-03T22:16:24.140Z,100799.17
2018-02-03T22:18:50.314Z,100799.58
2018-02-03T22:21:16.490Z,100809.13
2018-02-03T22:23:42.709Z,100812.18
2018-02-03T22:26:08.892Z,100816.93
2018-02-03T22:28:35.060Z,100811.70
2018-02-03T22:31:01.181Z,100819.90
2018-02-03T22:33:27.341Z,100822.63
2018-02-03T22:35:53.631Z,100822.75
2018-02-03T22:38:19.794Z,100824.16
2018-02-03T22:40:45.907Z,100830.57
2018-02-03T22:43:12.045Z,100830.09
2018-02-03T22:45:38.166Z,100835.33
2018-02-03T22:48:04.319Z,100834.98
2018-02-03T22:50:30.509Z,100839.75
2018-02-03T22:52:57.771Z,100844.06
2018-02-03T22:55:23.882Z,100849.83
2018-02-03T22:57:50.050Z,100859.86
2018-02-03T23:00:16.168Z,100858.20
2018-02-03T23:02:58.185Z,100855.55
2018-02-03T23:05:24.333Z,100860.16
2018-02-03T23:07:50.457Z,100867.56
2018-02-03T23:10:16.675Z,100877.01
2018-02-03T23:12:42.848Z,100886.48
2018-02-03T23:15:08.985Z,100879.50
2018-02-03T23:17:42.570Z,100891.23
2018-02-03T23:20:08.791Z,100898.56
2018-02-03T23:22:34.967Z,100897.60
2018-02-03T23:25:01.410Z,100903.55
2018-02-03T23:27:29.296Z,100902.13
2018-02-03T23:29:56.207Z,100905.38
2018-02-03T23:32:22.384Z,100905.62
2018-02-03T23:34:49.316Z,100920.22
2018-02-03T23:37:15.473Z,100919.73
2018-02-03T23:39:41.562Z,100924.72
2018-02-03T23:42:07.843Z,100924.84
2018-02-03T23:44:34.472Z,100923.30
2018-02-03T23:47:00.622Z,100931.90
2018-02-03T23:49:30.251Z,100941.00
2018-02-03T23:51:56.442Z,100937.77
2018-02-03T23:54:22.762Z,100937.12
2018-02-03T23:56:49.043Z,100939.07
2018-02-03T23:59:15.222Z,100940.96
